Time;durP1;ratioP1;P1;durP2;ratioP2;P2;SDS_P1;SDS_P2;PMS_P1;PMS_P2;Temp;Humidity;BMP_temperature;BMP_pressure;BME280_temperature;BME280_humidity;BME280_pressure;Samples;Min_cycle;Max_cycle;Signal;HPM_P1;HPM_P2
2023/05/13 00:02:02;;;;;;;15.00;12.97;;;;;;;11.23;100.00;102342.66;5073109;28;20426;-43
2023/05/13 00:04:31;;;;;;;12.40;11.20;;;;;;;11.19;100.00;102344.81;5072716;28;20469;-43
2023/05/13 00:06:59;;;;;;;12.70;11.50;;;;;;;11.17;100.00;102336.09;5073665;28;20878;-45
2023/05/13 00:09:26;;;;;;;11.90;11.10;;;;;;;11.14;100.00;102333.75;5072484;28;20431;-44
2023/05/13 00:11:54;;;;;;;13.33;10.83;;;;;;;11.17;100.00;102335.28;5071977;28;20769;-43
2023/05/13 00:14:22;;;;;;;12.07;10.90;;;;;;;11.10;100.00;102329.75;5071594;28;20450;-40
2023/05/13 00:16:50;;;;;;;18.13;12.13;;;;;;;11.02;100.00;102330.53;5071804;28;20458;-40
2023/05/13 00:19:18;;;;;;;13.13;11.93;;;;;;;11.00;100.00;102335.22;5073232;28;20429;-42
2023/05/13 00:21:47;;;;;;;14.60;13.30;;;;;;;11.00;100.00;102334.38;5072182;28;20434;-43
2023/05/13 00:24:14;;;;;;;14.40;13.20;;;;;;;10.96;100.00;102333.03;5072073;28;20419;-46
2023/05/13 00:26:42;;;;;;;12.80;11.67;;;;;;;10.96;100.00;102333.03;5071785;28;20488;-43
2023/05/13 00:29:10;;;;;;;13.33;12.13;;;;;;;10.94;100.00;102333.19;5072182;28;20847;-45
2023/05/13 00:31:38;;;;;;;16.03;12.67;;;;;;;10.97;100.00;102332.03;5072392;28;20426;-45
2023/05/13 00:34:05;;;;;;;14.97;13.47;;;;;;;10.96;100.00;102333.03;5072599;28;20430;-44
2023/05/13 00:36:33;;;;;;;14.50;13.00;;;;;;;10.95;100.00;102336.69;5072089;28;20470;-46
2023/05/13 00:39:02;;;;;;;14.47;13.07;;;;;;;10.91;100.00;102325.50;5071782;28;20434;-44
2023/05/13 00:41:30;;;;;;;13.20;12.10;;;;;;;10.88;100.00;102328.47;5071985;28;20527;-42
2023/05/13 00:43:57;;;;;;;13.00;11.90;;;;;;;10.89;100.00;102329.31;5071979;28;20811;-44
2023/05/13 00:46:25;;;;;;;12.50;11.60;;;;;;;10.86;100.00;102332.31;5070864;28;21074;-47
2023/05/13 00:48:53;;;;;;;14.83;13.57;;;;;;;10.85;100.00;102327.97;5072376;28;20433;-42
2023/05/13 00:51:21;;;;;;;14.70;13.60;;;;;;;10.84;100.00;102327.13;5072783;28;20430;-45
2023/05/13 00:53:50;;;;;;;14.57;13.33;;;;;;;10.81;100.00;102326.63;5072820;28;20464;-45
2023/05/13 00:56:20;;;;;;;13.60;12.60;;;;;;;10.79;100.00;102328.59;5071015;28;20512;-45
2023/05/13 00:58:48;;;;;;;15.37;13.97;;;;;;;10.78;100.00;102325.09;5072337;28;20426;-44
2023/05/13 01:01:22;;;;;;;13.70;12.60;;;;;;;10.75;100.00;102328.06;5072362;28;20430;-45
2023/05/13 01:04:00;;;;;;;16.87;13.60;;;;;;;10.76;100.00;102327.09;5071338;28;20430;-47
2023/05/13 01:06:36;;;;;;;14.67;13.47;;;;;;;10.74;100.00;102321.09;5072009;28;20469;-44
2023/05/13 01:09:17;;;;;;;14.83;13.43;;;;;;;10.71;100.00;102320.56;5072234;28;21029;-42
2023/05/13 01:11:48;;;;;;;15.37;14.00;;;;;;;10.69;100.00;102319.91;5071360;28;20434;-47
2023/05/13 01:14:22;;;;;;;15.67;14.27;;;;;;;10.63;100.00;102318.69;5071030;28;20427;-46
2023/05/13 01:16:55;;;;;;;14.63;13.40;;;;;;;10.65;100.00;102316.69;5072333;28;20863;-45
2023/05/13 01:19:35;;;;;;;15.20;13.90;;;;;;;10.59;100.00;102316.50;5072109;28;20492;-42
2023/05/13 01:22:05;;;;;;;15.10;13.90;;;;;;;10.57;100.00;102321.16;5071526;28;20427;-43
2023/05/13 01:24:33;;;;;;;16.50;15.03;;;;;;;10.59;100.00;102317.34;5071549;28;21059;-45
2023/05/13 01:27:01;;;;;;;14.70;13.40;;;;;;;10.58;100.00;102315.66;5070938;28;20543;-45
2023/05/13 01:29:29;;;;;;;16.00;14.20;;;;;;;10.57;100.00;102313.16;5071929;28;20939;-42
2023/05/13 01:31:59;;;;;;;17.27;15.83;;;;;;;10.54;100.00;102325.78;5070063;28;20430;-46
2023/05/13 01:34:28;;;;;;;16.30;14.80;;;;;;;10.54;100.00;102324.97;5070555;28;20823;-43
2023/05/13 01:36:56;;;;;;;16.20;14.90;;;;;;;10.52;100.00;102327.78;5070837;28;20535;-44
2023/05/13 01:39:25;;;;;;;17.23;15.47;;;;;;;10.47;100.00;102332.78;5070491;28;20430;-40
2023/05/13 01:41:53;;;;;;;17.90;16.10;;;;;;;10.45;100.00;102334.75;5071378;28;20567;-44
2023/05/13 01:44:21;;;;;;;17.27;15.70;;;;;;;10.45;100.00;102332.06;5070815;28;20787;-42
2023/05/13 01:46:49;;;;;;;17.47;15.77;;;;;;;10.46;100.00;102338.25;5071072;28;20856;-43
2023/05/13 01:49:17;;;;;;;16.37;15.17;;;;;;;10.43;100.00;102330.56;5071158;28;20976;-42
2023/05/13 01:51:45;;;;;;;17.20;15.77;;;;;;;10.42;100.00;102336.91;5071081;28;20445;-45
2023/05/13 01:54:13;;;;;;;17.97;16.47;;;;;;;10.38;100.00;102328.38;5068340;28;20453;-43
2023/05/13 01:56:42;;;;;;;17.10;15.70;;;;;;;10.37;100.00;102326.69;5069816;28;20446;-40
2023/05/13 01:59:10;;;;;;;18.27;16.50;;;;;;;10.35;100.00;102334.03;5071061;28;20434;-42
2023/05/13 02:01:39;;;;;;;17.73;15.90;;;;;;;10.31;100.00;102324.66;5070946;28;20434;-47
2023/05/13 02:04:07;;;;;;;18.70;16.97;;;;;;;10.30;100.00;102331.00;5068697;28;20430;-43
2023/05/13 02:06:35;;;;;;;16.87;15.40;;;;;;;10.30;100.00;102333.66;5069997;28;20972;-39
2023/05/13 02:09:03;;;;;;;18.20;16.67;;;;;;;10.27;100.00;102336.66;5070376;28;20440;-42
2023/05/13 02:11:30;;;;;;;21.27;17.73;;;;;;;10.22;100.00;102330.91;5070830;28;20435;-44
2023/05/13 02:13:59;;;;;;;18.40;16.63;;;;;;;10.25;100.00;102335.09;5070427;28;20514;-41
2023/05/13 02:16:27;;;;;;;17.30;15.80;;;;;;;10.25;100.00;102337.75;5068726;28;20434;-42
2023/05/13 02:18:55;;;;;;;20.00;17.90;;;;;;;10.21;100.00;102342.59;5069858;28;20525;-45
2023/05/13 02:21:23;;;;;;;19.60;17.70;;;;;;;10.22;100.00;102333.59;5070954;28;20480;-40
2023/05/13 02:23:51;;;;;;;19.50;17.50;;;;;;;10.17;100.00;102330.56;5070544;28;20441;-42
2023/05/13 02:26:18;;;;;;;18.67;17.07;;;;;;;10.19;100.00;102339.22;5069170;28;20462;-42
2023/05/13 02:28:47;;;;;;;18.30;16.60;;;;;;;10.18;100.00;102332.25;5070914;28;20430;-42
2023/05/13 02:31:16;;;;;;;17.83;16.10;;;;;;;10.17;100.00;102333.22;5070219;28;20934;-42
2023/05/13 02:33:44;;;;;;;19.83;18.20;;;;;;;10.16;100.00;102328.88;5070528;28;20431;-47
2023/05/13 02:36:12;;;;;;;19.60;18.10;;;;;;;10.12;100.00;102329.31;5070743;28;20477;-45
2023/05/13 02:38:39;;;;;;;20.63;18.83;;;;;;;10.12;100.00;102324.00;5071081;28;20438;-41
2023/05/13 02:41:07;;;;;;;19.97;17.97;;;;;;;10.09;100.00;102329.63;5070048;28;20437;-41
2023/05/13 02:43:35;;;;;;;20.67;18.50;;;;;;;10.08;100.00;102333.28;5069245;28;20440;-45
2023/05/13 02:46:03;;;;;;;20.93;19.13;;;;;;;10.06;100.00;102325.44;5068888;28;20496;-44
2023/05/13 02:48:32;;;;;;;21.70;19.57;;;;;;;10.12;100.00;102337.31;5071168;28;20632;-40
2023/05/13 02:51:00;;;;;;;20.87;19.17;;;;;;;10.12;100.00;102340.00;5070388;28;20422;-42
2023/05/13 02:53:27;;;;;;;19.90;18.30;;;;;;;10.16;100.00;102342.22;5070762;28;20804;-42
2023/05/13 02:55:55;;;;;;;19.70;17.97;;;;;;;10.16;100.00;102336.88;5070208;28;20458;-42
2023/05/13 02:58:23;;;;;;;23.50;21.30;;;;;;;10.18;100.00;102336.72;5070586;28;20450;-41
2023/05/13 03:00:50;;;;;;;22.37;20.27;;;;;;;10.15;100.00;102321.06;5070328;28;20790;-45
2023/05/13 03:03:18;;;;;;;21.07;19.10;;;;;;;10.15;100.00;102329.88;5069579;28;20477;-45
2023/05/13 03:05:47;;;;;;;22.50;20.40;;;;;;;10.14;100.00;102322.88;5070018;28;20473;-41
2023/05/13 03:08:15;;;;;;;20.30;18.50;;;;;;;10.14;100.00;102328.19;5070468;28;20513;-39
2023/05/13 03:10:43;;;;;;;21.90;19.90;;;;;;;10.13;100.00;102328.31;5069182;28;20520;-44
2023/05/13 03:13:10;;;;;;;23.10;20.80;;;;;;;10.10;100.00;102325.94;5069870;28;20433;-40
2023/05/13 03:15:38;;;;;;;22.80;20.57;;;;;;;10.05;100.00;102329.09;5068477;28;20520;-42
2023/05/13 03:18:07;;;;;;;23.27;20.87;;;;;;;10.05;100.00;102331.75;5070337;28;20516;-43
2023/05/13 03:20:35;;;;;;;22.40;20.47;;;;;;;9.99;100.00;102341.22;5070088;28;20422;-42
2023/05/13 03:23:04;;;;;;;24.20;21.03;;;;;;;9.99;100.00;102335.03;5068615;28;20923;-42
2023/05/13 03:25:31;;;;;;;22.70;20.80;;;;;;;9.99;100.00;102341.22;5068864;28;20470;-41
2023/05/13 03:27:59;;;;;;;21.53;19.73;;;;;;;10.00;100.00;102348.19;5072352;28;20466;-43
2023/05/13 03:30:27;;;;;;;23.57;21.33;;;;;;;10.03;100.00;102339.09;5074217;28;20426;-45
2023/05/13 03:32:55;;;;;;;20.70;18.77;;;;;;;10.03;100.00;102339.09;5073225;28;20426;-44
2023/05/13 03:35:22;;;;;;;20.27;18.33;;;;;;;10.05;100.00;102342.44;5073439;28;20458;-42
2023/05/13 03:37:51;;;;;;;18.97;17.30;;;;;;;10.11;100.00;102340.97;5072541;28;20804;-42
2023/05/13 03:40:20;;;;;;;21.10;19.10;;;;;;;10.16;100.00;102344.03;5071216;28;20525;-43
2023/05/13 03:42:48;;;;;;;20.03;18.20;;;;;;;10.20;100.00;102348.06;5073125;28;20472;-43
2023/05/13 03:45:16;;;;;;;20.27;18.17;;;;;;;10.23;100.00;102347.75;5072681;28;20466;-42
2023/05/13 03:47:43;;;;;;;19.40;17.70;;;;;;;10.30;100.00;102349.66;5073880;28;20478;-43
2023/05/13 03:50:11;;;;;;;20.67;18.97;;;;;;;10.32;100.00;102349.50;5073324;28;20444;-42
2023/05/13 03:52:39;;;;;;;21.50;19.27;;;;;;;10.32;100.00;102353.00;5072849;28;20891;-43
2023/05/13 03:55:07;;;;;;;19.70;17.83;;;;;;;10.35;100.00;102346.53;5073446;28;20458;-43
2023/05/13 03:57:36;;;;;;;20.57;18.77;;;;;;;10.36;100.00;102346.34;5073156;28;20450;-45
2023/05/13 04:00:05;;;;;;;19.90;18.20;;;;;;;10.35;100.00;102342.03;5073175;28;20438;-47
2023/05/13 04:02:32;;;;;;;19.87;18.13;;;;;;;10.36;100.00;102345.53;5073416;28;20441;-45
2023/05/13 04:05:00;;;;;;;20.17;18.23;;;;;;;10.37;100.00;102345.38;5070042;28;20557;-41
2023/05/13 04:07:28;;;;;;;18.30;16.80;;;;;;;10.43;100.00;102355.41;5070374;28;20480;-44
2023/05/13 04:09:55;;;;;;;18.90;17.17;;;;;;;10.45;100.00;102352.59;5070526;28;20525;-45
2023/05/13 04:12:24;;;;;;;18.00;16.70;;;;;;;10.50;100.00;102348.47;5069991;28;21014;-41
2023/05/13 04:14:53;;;;;;;19.87;18.07;;;;;;;10.58;100.00;102355.66;5069917;28;20466;-45
2023/05/13 04:17:20;;;;;;;18.80;17.00;;;;;;;10.63;100.00;102350.72;5071656;28;20476;-41
2023/05/13 04:19:48;;;;;;;17.43;15.90;;;;;;;10.67;100.00;102351.22;5069598;28;20485;-47
2023/05/13 04:22:15;;;;;;;17.93;16.13;;;;;;;10.77;100.00;102346.59;5070447;28;20935;-41
2023/05/13 04:24:43;;;;;;;18.60;17.10;;;;;;;10.87;100.00;102353.50;5070746;28;20462;-43
2023/05/13 04:27:11;;;;;;;16.80;15.40;;;;;;;11.13;100.00;102358.78;5072967;28;20481;-45
2023/05/13 04:29:39;;;;;;;17.10;15.63;;;;;;;11.78;100.00;102351.81;5071658;28;20438;-40
2023/05/13 04:32:08;;;;;;;15.17;13.70;;;;;;;12.55;100.00;102348.59;5070996;28;20441;-44
2023/05/13 04:34:36;;;;;;;14.30;12.90;;;;;;;13.49;100.00;102342.41;5070384;28;20533;-44
2023/05/13 04:37:03;;;;;;;14.70;13.40;;;;;;;14.11;100.00;102335.06;5071204;28;20446;-42
2023/05/13 04:39:31;;;;;;;13.20;12.03;;;;;;;14.69;100.00;102339.72;5070816;28;20434;-44
2023/05/13 04:41:59;;;;;;;13.17;11.80;;;;;;;15.25;100.00;102336.34;5069959;28;20430;-42
2023/05/13 04:44:26;;;;;;;11.30;10.40;;;;;;;15.89;100.00;102337.25;5045623;28;20823;-43
2023/05/13 04:46:54;;;;;;;11.37;10.67;;;;;;;16.42;100.00;102343.09;5072160;28;20835;-42
2023/05/13 04:49:23;;;;;;;11.77;10.87;;;;;;;16.90;100.00;102334.09;5071615;28;20433;-45
2023/05/13 04:51:51;;;;;;;12.37;11.30;;;;;;;17.28;100.00;102331.78;5072111;28;20437;-45
2023/05/13 04:54:19;;;;;;;10.13;9.43;;;;;;;17.11;94.23;102336.66;5070778;28;20484;-43
2023/05/13 04:56:47;;;;;;;11.60;10.40;;;;;;;17.38;98.62;102337.59;5071970;28;20449;-45
2023/05/13 04:59:15;;;;;;;12.20;11.20;;;;;;;17.53;97.42;102334.75;5071827;28;20768;-44
2023/05/13 05:01:42;;;;;;;11.40;10.27;;;;;;;17.34;87.38;102351.69;5071443;28;20506;-48
2023/05/13 05:04:11;;;;;;;10.83;10.03;;;;;;;17.55;90.92;102340.78;5061004;28;20480;-46
2023/05/13 05:06:40;;;;;;;10.43;9.60;;;;;;;17.55;87.89;102355.13;5071162;28;20454;-41
2023/05/13 05:09:08;;;;;;;11.03;10.13;;;;;;;17.74;89.17;102345.38;5072500;28;20426;-44
2023/05/13 05:11:35;;;;;;;9.60;8.90;;;;;;;17.67;84.54;102356.19;5071284;28;20426;-41
2023/05/13 05:14:03;;;;;;;10.47;9.80;;;;;;;17.91;85.58;102345.84;5070560;28;20425;-41
2023/05/13 05:16:31;;;;;;;10.57;9.80;;;;;;;17.87;83.11;102347.28;5070712;28;20457;-47
2023/05/13 05:18:59;;;;;;;10.27;9.57;;;;;;;18.08;81.58;102344.41;5071076;28;20999;-41
2023/05/13 05:21:27;;;;;;;10.10;9.40;;;;;;;18.23;79.88;102345.84;5070040;28;20426;-45
2023/05/13 05:23:55;;;;;;;10.90;9.90;;;;;;;18.56;83.70;102342.31;5071618;28;20495;-43
2023/05/13 05:26:23;;;;;;;9.10;8.50;;;;;;;18.82;78.70;102344.97;5063722;28;20983;-45
2023/05/13 05:28:51;;;;;;;9.50;8.90;;;;;;;19.08;77.37;102350.31;5071031;28;20477;-46
2023/05/13 05:31:18;;;;;;;9.50;8.70;;;;;;;19.08;75.68;102352.19;5071612;28;20433;-39
2023/05/13 05:33:46;;;;;;;10.90;10.00;;;;;;;19.25;73.64;102356.06;5071336;28;20442;-47
2023/05/13 05:36:14;;;;;;;9.60;8.83;;;;;;;19.26;74.55;102352.31;5067938;28;20477;-44
2023/05/13 05:38:41;;;;;;;9.87;9.10;;;;;;;19.49;72.83;102355.34;5071024;28;20426;-42
2023/05/13 05:41:11;;;;;;;10.20;9.40;;;;;;;19.55;71.43;102359.88;5070563;28;20426;-43
2023/05/13 05:43:38;;;;;;;9.87;8.80;;;;;;;19.66;71.96;102356.47;5070120;28;20838;-41
2023/05/13 05:46:06;;;;;;;9.30;8.50;;;;;;;19.67;69.72;102363.56;5068402;28;20466;-48
2023/05/13 05:48:34;;;;;;;9.23;8.43;;;;;;;19.69;71.76;102366.88;5069992;28;20476;-43
2023/05/13 05:51:02;;;;;;;9.63;8.43;;;;;;;20.08;70.49;102368.47;5069469;28;20437;-43
2023/05/13 05:53:30;;;;;;;9.43;8.80;;;;;;;19.95;69.40;102365.88;5068587;28;20430;-41
2023/05/13 05:55:58;;;;;;;8.60;7.90;;;;;;;20.32;67.62;102365.00;5069085;28;20497;-44
2023/05/13 05:58:27;;;;;;;8.30;7.80;;;;;;;20.83;65.10;102372.00;5069950;28;20448;-42
2023/05/13 06:00:55;;;;;;;8.77;8.07;;;;;;;21.02;63.49;102359.28;5071112;28;20437;-46
2023/05/13 06:03:23;;;;;;;8.63;7.40;;;;;;;21.08;61.78;102369.22;5070770;28;20440;-41
2023/05/13 06:05:51;;;;;;;8.77;8.20;;;;;;;21.30;62.35;102362.28;5070512;28;20473;-45
2023/05/13 06:08:19;;;;;;;8.90;7.50;;;;;;;21.62;58.18;102362.91;5069315;28;20469;-40
2023/05/13 06:10:47;;;;;;;8.40;7.73;;;;;;;21.97;58.57;102359.28;5068405;28;20429;-41
2023/05/13 06:13:14;;;;;;;8.00;7.40;;;;;;;22.17;58.18;102356.22;5068047;28;20426;-43
2023/05/13 06:15:43;;;;;;;8.50;7.90;;;;;;;22.29;56.05;102357.06;5067671;28;20540;-42
2023/05/13 06:18:11;;;;;;;9.00;8.30;;;;;;;22.16;56.24;102360.00;5078906;22;20546;-45
2023/05/13 06:20:39;;;;;;;8.23;7.70;;;;;;;22.38;56.92;102358.38;5075462;28;20433;-40
2023/05/13 06:23:06;;;;;;;8.50;7.70;;;;;;;22.35;54.18;102361.56;5076959;28;20426;-43
2023/05/13 06:25:34;;;;;;;8.73;7.83;;;;;;;22.65;56.67;102357.91;5076585;28;20477;-41
2023/05/13 06:28:02;;;;;;;8.70;8.10;;;;;;;22.47;55.86;102350.69;5074830;28;20477;-42
2023/05/13 06:30:30;;;;;;;8.33;7.70;;;;;;;22.90;55.01;102361.22;5078053;28;20446;-41
2023/05/13 06:32:59;;;;;;;10.47;7.80;;;;;;;22.66;53.81;102357.69;5076549;28;20549;-42
2023/05/13 06:35:29;;;;;;;10.90;8.20;;;;;;;22.92;54.15;102353.63;5074943;28;20569;-40
2023/05/13 06:37:57;;;;;;;8.50;7.90;;;;;;;22.71;53.52;102365.13;5075911;28;20446;-42
2023/05/13 06:40:24;;;;;;;8.17;7.57;;;;;;;22.81;52.96;102359.94;5073489;28;20433;-41
2023/05/13 06:42:52;;;;;;;8.90;8.00;;;;;;;23.00;53.32;102372.28;5074972;28;20425;-45
2023/05/13 06:45:22;;;;;;;9.00;8.30;;;;;;;23.09;53.65;102359.97;5074836;28;20461;-42
2023/05/13 06:47:50;;;;;;;7.90;7.20;;;;;;;23.05;52.99;102373.25;5075351;28;20514;-44
2023/05/13 06:50:19;;;;;;;10.20;8.57;;;;;;;22.87;52.59;102378.00;5075722;28;20440;-43
2023/05/13 06:52:47;;;;;;;8.60;7.80;;;;;;;23.05;52.13;102377.88;5074645;28;20457;-40
2023/05/13 06:55:17;;;;;;;8.17;7.50;;;;;;;23.31;53.93;102376.47;5073719;28;20454;-41
2023/05/13 06:57:46;;;;;;;9.37;8.50;;;;;;;23.51;52.35;102376.91;5075108;28;20445;-43
2023/05/13 07:00:14;;;;;;;9.30;8.60;;;;;;;23.42;53.13;102373.75;5074198;28;20422;-41
2023/05/13 07:02:42;;;;;;;8.77;8.17;;;;;;;23.64;52.63;102384.81;5076998;28;20436;-43
2023/05/13 07:05:11;;;;;;;8.73;8.00;;;;;;;23.53;51.09;102396.56;5072116;28;20422;-40
2023/05/13 07:07:42;;;;;;;9.23;8.43;;;;;;;23.00;53.17;102380.47;5078852;28;20969;-40
2023/05/13 07:10:10;;;;;;;14.83;9.03;;;;;;;22.96;51.84;102377.41;5079498;28;20687;-45
2023/05/13 07:12:38;;;;;;;9.37;8.47;;;;;;;22.95;51.14;102388.53;5077934;28;20433;-42
2023/05/13 07:15:07;;;;;;;9.77;8.80;;;;;;;23.15;53.40;102373.44;5078676;28;20909;-41
2023/05/13 07:17:35;;;;;;;9.60;8.90;;;;;;;22.98;51.99;102378.00;5071257;28;20538;-42
2023/05/13 07:20:02;;;;;;;8.87;8.27;;;;;;;22.63;52.09;102377.19;5078381;28;20930;-41
2023/05/13 07:22:30;;;;;;;9.13;8.50;;;;;;;22.68;52.98;102366.44;5077849;28;20433;-41
2023/05/13 07:24:59;;;;;;;9.27;8.27;;;;;;;22.54;52.41;102368.56;5078125;28;20425;-41
2023/05/13 07:27:27;;;;;;;12.47;8.30;;;;;;;22.29;53.07;102376.09;5078909;28;20465;-41
2023/05/13 07:29:55;;;;;;;9.00;8.30;;;;;;;21.96;54.68;102375.78;5078535;28;20538;-42
2023/05/13 07:32:22;;;;;;;8.43;7.63;;;;;;;21.98;54.21;102371.78;5077703;28;20437;-41
2023/05/13 07:34:50;;;;;;;8.50;7.90;;;;;;;21.82;53.34;102367.00;5078750;28;20521;-42
2023/05/13 07:37:17;;;;;;;8.00;7.30;;;;;;;21.86;53.15;102368.16;5077851;28;20492;-41
2023/05/13 07:39:45;;;;;;;8.70;8.07;;;;;;;21.62;53.57;102371.06;5078353;28;20954;-43
2023/05/13 07:42:14;;;;;;;8.40;7.50;;;;;;;21.55;53.94;102368.44;5077467;28;20436;-42
2023/05/13 07:44:42;;;;;;;10.50;7.83;;;;;;;21.14;56.06;102373.78;5078379;28;20505;-44
2023/05/13 07:47:10;;;;;;;9.77;8.77;;;;;;;21.17;56.81;102376.88;5074279;28;20471;-47
2023/05/13 07:49:40;;;;;;;8.87;8.27;;;;;;;20.88;59.08;102372.97;5077811;28;21145;-44
2023/05/13 07:52:07;;;;;;;10.43;9.63;;;;;;;20.93;59.50;102378.56;5078345;28;20436;-45
2023/05/13 07:54:35;;;;;;;9.90;9.10;;;;;;;20.57;62.59;102377.69;5077931;28;20436;-42
2023/05/13 07:57:03;;;;;;;10.30;9.50;;;;;;;20.14;63.69;102374.91;5076942;28;20896;-41
2023/05/13 07:59:32;;;;;;;9.80;9.00;;;;;;;20.03;65.27;102371.03;5078148;28;20433;-42
2023/05/13 08:02:00;;;;;;;10.30;9.33;;;;;;;19.90;65.76;102379.22;5078504;28;20931;-43
2023/05/13 08:04:27;;;;;;;10.53;9.50;;;;;;;19.60;67.40;102372.75;5078517;28;20440;-46
2023/05/13 08:06:55;;;;;;;9.50;8.70;;;;;;;19.52;69.94;102381.97;5076388;28;20536;-40
2023/05/13 08:09:23;;;;;;;10.57;9.73;;;;;;;19.45;68.83;102383.03;5079042;28;20470;-43
2023/05/13 08:11:51;;;;;;;11.13;10.03;;;;;;;19.43;71.69;102375.13;5078660;28;20422;-41
2023/05/13 08:14:18;;;;;;;11.13;9.50;;;;;;;19.53;69.58;102385.50;5078519;28;20499;-39
2023/05/13 08:16:47;;;;;;;12.17;8.90;;;;;;;19.47;70.98;102370.97;5076368;28;21052;-39
2023/05/13 08:19:15;;;;;;;10.27;9.47;;;;;;;19.13;72.73;102368.56;5077705;28;20430;-42
2023/05/13 08:21:43;;;;;;;10.80;9.83;;;;;;;19.59;74.25;102373.81;5077690;28;20957;-43
2023/05/13 08:24:11;;;;;;;11.30;10.20;;;;;;;19.87;73.18;102375.09;5077758;28;20826;-41
2023/05/13 08:26:38;;;;;;;11.90;10.60;;;;;;;19.99;72.37;102368.97;5077289;28;20470;-43
2023/05/13 08:29:07;;;;;;;13.10;11.77;;;;;;;19.82;72.15;102372.22;5077505;28;20470;-40
2023/05/13 08:31:35;;;;;;;11.23;10.10;;;;;;;19.90;72.87;102376.53;5077467;28;20807;-39
2023/05/13 08:34:04;;;;;;;11.07;9.97;;;;;;;19.93;72.83;102381.50;5077627;28;20976;-41
2023/05/13 08:36:31;;;;;;;10.83;9.70;;;;;;;19.98;73.39;102376.25;5077488;28;20822;-43
2023/05/13 08:39:00;;;;;;;10.90;10.00;;;;;;;19.77;75.15;102371.22;5077393;28;20449;-42
2023/05/13 08:41:29;;;;;;;9.77;9.07;;;;;;;19.60;77.06;102383.59;5077903;28;20822;-43
2023/05/13 08:43:58;;;;;;;11.70;10.50;;;;;;;19.41;77.95;102376.41;5077529;28;20790;-41
2023/05/13 08:46:27;;;;;;;11.50;9.37;;;;;;;19.55;80.49;102378.84;5076562;28;20481;-44
2023/05/13 08:48:55;;;;;;;11.57;10.50;;;;;;;19.65;78.85;102379.16;5077354;28;20769;-42
2023/05/13 08:51:24;;;;;;;10.17;9.43;;;;;;;19.67;77.47;102387.09;5077833;28;20442;-41
2023/05/13 08:53:54;;;;;;;11.67;10.13;;;;;;;19.58;78.88;102389.22;5077151;28;20563;-44
2023/05/13 08:56:24;;;;;;;11.53;10.63;;;;;;;19.55;79.86;102386.94;5076485;28;20484;-44
2023/05/13 08:58:52;;;;;;;11.67;10.60;;;;;;;19.47;80.26;102387.22;5077391;28;21024;-40
2023/05/13 09:01:20;;;;;;;10.27;9.37;;;;;;;19.47;81.04;102383.66;5077851;28;20438;-40
2023/05/13 09:03:54;;;;;;;11.13;10.43;;;;;;;19.66;80.14;102396.25;5077541;28;20426;-42
2023/05/13 09:06:23;;;;;;;12.60;11.70;;;;;;;19.79;79.35;102380.78;5076740;28;20463;-43
2023/05/13 09:08:51;;;;;;;12.00;10.83;;;;;;;19.75;78.09;102382.25;5078144;28;20464;-43
2023/05/13 09:11:19;;;;;;;11.93;10.00;;;;;;;19.65;81.67;102390.00;5076732;28;20436;-43
2023/05/13 09:13:57;;;;;;;10.53;9.63;;;;;;;19.83;81.18;102381.97;5076388;28;20434;-44
2023/05/13 09:16:25;;;;;;;11.90;10.70;;;;;;;19.89;80.21;102383.81;5076958;28;20524;-43
2023/05/13 09:18:57;;;;;;;12.33;11.30;;;;;;;19.96;84.16;102385.66;5067143;28;21136;-41
2023/05/13 09:21:30;;;;;;;11.53;10.63;;;;;;;20.01;79.84;102385.84;5077335;28;20428;-43
2023/05/13 09:24:09;;;;;;;11.93;10.80;;;;;;;19.92;76.39;102384.44;5076784;28;20434;-40
2023/05/13 09:26:38;;;;;;;11.83;10.63;;;;;;;20.09;76.28;102388.28;5076996;28;20480;-41
2023/05/13 09:29:17;;;;;;;12.60;10.00;;;;;;;20.04;76.45;102388.13;5076221;28;20461;-41
2023/05/13 09:31:47;;;;;;;11.40;10.60;;;;;;;20.02;75.13;102388.31;5076937;28;20858;-41
2023/05/13 09:34:15;;;;;;;12.00;10.90;;;;;;;20.04;71.59;102386.22;5076815;28;20432;-42
2023/05/13 09:36:45;;;;;;;11.27;10.13;;;;;;;20.23;69.93;102379.00;5076961;28;20438;-40
2023/05/13 09:39:12;;;;;;;11.93;10.83;;;;;;;20.23;70.40;102379.00;5077231;28;20477;-40
2023/05/13 09:41:41;;;;;;;11.33;10.20;;;;;;;20.24;72.36;102383.38;5076360;28;20505;-45
2023/05/13 09:44:11;;;;;;;11.07;10.17;;;;;;;20.24;70.42;102380.66;5076399;28;20492;-42
2023/05/13 09:46:39;;;;;;;13.70;10.27;;;;;;;20.46;68.12;102373.81;5076420;28;20422;-41
2023/05/13 09:49:07;;;;;;;10.40;9.50;;;;;;;20.41;68.12;102370.94;5071032;28;21171;-39
2023/05/13 09:51:34;;;;;;;9.77;9.00;;;;;;;20.37;67.06;102375.13;5077348;28;20620;-40
2023/05/13 09:54:07;;;;;;;10.37;9.43;;;;;;;20.42;68.20;102378.03;5075936;28;20461;-44
2023/05/13 09:56:35;;;;;;;10.87;9.97;;;;;;;20.49;66.96;102372.56;5076535;28;20440;-45
2023/05/13 09:59:03;;;;;;;17.30;10.10;;;;;;;20.46;69.28;102373.81;5075510;28;20472;-40
2023/05/13 10:01:31;;;;;;;11.03;10.17;;;;;;;20.50;68.46;102369.63;5076834;28;20425;-41
2023/05/13 10:04:00;;;;;;;10.87;10.00;;;;;;;20.76;66.64;102368.50;5076558;28;20465;-40
2023/05/13 10:06:30;;;;;;;11.80;10.60;;;;;;;20.66;66.90;102366.34;5076110;28;20453;-42
2023/05/13 10:09:02;;;;;;;12.13;10.40;;;;;;;20.78;66.46;102375.41;5075262;28;20537;-42
2023/05/13 10:11:34;;;;;;;12.03;10.87;;;;;;;20.73;66.54;102360.81;5076355;28;20470;-40
2023/05/13 10:14:05;;;;;;;11.50;10.37;;;;;;;20.66;64.70;102362.78;5075848;28;20505;-42
2023/05/13 10:16:33;;;;;;;10.00;9.13;;;;;;;20.76;64.43;102360.38;5076386;28;20429;-39
2023/05/13 10:19:02;;;;;;;14.47;9.27;;;;;;;20.85;63.43;102357.16;5074072;28;20460;-42
2023/05/13 10:21:31;;;;;;;10.60;9.80;;;;;;;21.04;61.28;102351.72;5074603;28;20517;-43
2023/05/13 10:23:59;;;;;;;10.13;9.30;;;;;;;20.92;61.48;102355.22;5077530;28;20430;-41
2023/05/13 10:26:27;;;;;;;11.37;10.53;;;;;;;21.22;61.23;102347.16;5074803;28;20445;-42
2023/05/13 10:28:57;;;;;;;11.27;10.43;;;;;;;21.33;61.11;102351.81;5075107;28;20472;-41
2023/05/13 10:31:26;;;;;;;12.23;11.13;;;;;;;21.58;60.53;102350.84;5077042;28;20492;-40
2023/05/13 10:33:54;;;;;;;9.77;8.80;;;;;;;21.59;58.84;102352.50;5076448;28;20934;-47
2023/05/13 10:36:58;;;;;;;9.80;8.83;;;;;;;21.49;59.40;102355.78;5074161;28;21137;-40
2023/05/13 10:39:53;;;;;;;9.47;8.57;;;;;;;21.43;56.73;102346.66;5022112;28;20446;-43
2023/05/13 10:42:39;;;;;;;9.00;8.30;;;;;;;21.46;58.40;102343.50;5070091;28;20992;-44
2023/05/13 10:45:09;;;;;;;8.57;7.90;;;;;;;21.70;58.75;102333.53;5075032;28;20474;-41
2023/05/13 10:47:37;;;;;;;9.10;8.30;;;;;;;21.65;60.16;102338.84;5052103;28;20466;-42
2023/05/13 10:50:07;;;;;;;8.87;8.07;;;;;;;21.68;59.38;102337.56;5074713;28;20481;-42
2023/05/13 10:52:46;;;;;;;10.13;8.97;;;;;;;21.69;59.99;102336.47;5074576;28;20426;-40
2023/05/13 10:55:18;;;;;;;9.63;8.83;;;;;;;21.77;60.71;102330.72;5075034;28;20429;-41
2023/05/13 10:58:04;;;;;;;8.87;8.27;;;;;;;21.62;62.62;102323.03;5075276;28;20843;-43
2023/05/13 11:00:34;;;;;;;9.83;8.40;;;;;;;21.40;62.09;102320.00;5074185;28;20436;-45
2023/05/13 11:03:26;;;;;;;9.00;8.20;;;;;;;21.32;63.89;102317.59;5075293;28;20530;-42
2023/05/13 11:06:03;;;;;;;8.40;7.57;;;;;;;21.38;60.23;102311.25;5075554;28;20428;-40
2023/05/13 11:08:39;;;;;;;8.50;7.80;;;;;;;21.53;59.06;102314.34;5075009;28;20468;-40
2023/05/13 11:11:32;;;;;;;8.50;7.70;;;;;;;21.71;56.99;102309.94;5075210;28;20923;-45
2023/05/13 11:14:15;;;;;;;8.47;7.67;;;;;;;21.68;57.06;102308.53;5075373;28;20520;-44
2023/05/13 11:16:55;;;;;;;8.50;7.67;;;;;;;21.79;55.28;102312.31;5075284;28;20418;-45
2023/05/13 11:19:25;;;;;;;8.30;7.40;;;;;;;21.74;53.22;102317.63;5073819;28;20472;-42
2023/05/13 11:21:55;;;;;;;8.93;8.20;;;;;;;21.82;53.69;102312.69;5075526;28;20462;-43